createdAt,value
2023-03-05T00:00:45.142Z,96882.88
2023-03-05T00:03:13.168Z,96877.66
2023-03-05T00:05:41.223Z,96877.75
2023-03-05T00:08:09.035Z,96878.56
2023-03-05T00:10:36.887Z,96871.66
2023-03-05T00:13:04.822Z,96870.91
2023-03-05T00:15:32.864Z,96874.34
2023-03-05T00:18:02.125Z,96874.34
2023-03-05T00:20:29.969Z,96869.13
2023-03-05T00:22:57.792Z,96870.03
2023-03-05T00:25:25.766Z,96868.28
2023-03-05T00:27:53.638Z,96870.94
2023-03-05T00:30:21.460Z,96871.66
2023-03-05T00:32:49.301Z,96868.34
2023-03-05T00:35:18.646Z,96865.78
2023-03-05T00:37:46.629Z,96859.69
2023-03-05T00:40:14.740Z,96864.06
2023-03-05T00:42:42.750Z,96856.09
2023-03-05T00:45:11.880Z,96858.69
2023-03-05T00:47:40.307Z,96853.53
2023-03-05T00:50:09.447Z,96853.47
2023-03-05T00:52:39.109Z,96855.31
2023-03-05T00:55:07.680Z,96850.09
2023-03-05T00:57:35.517Z,96848.31
2023-03-05T01:00:04.002Z,96842.22
2023-03-05T01:02:33.810Z,96841.34
2023-03-05T01:05:02.821Z,96840.50
2023-03-05T01:07:31.023Z,96836.25
2023-03-05T01:10:00.293Z,96830.06
2023-03-05T01:12:28.084Z,96833.47
2023-03-05T01:14:55.920Z,96831.78
2023-03-05T01:17:23.770Z,96834.44
2023-03-05T01:19:51.678Z,96835.28
2023-03-05T01:22:19.559Z,96832.63
2023-03-05T01:24:47.574Z,96831.78
2023-03-05T01:27:16.965Z,96826.56
2023-03-05T01:29:44.907Z,96822.19
2023-03-05T01:32:12.921Z,96821.28
2023-03-05T01:34:41.935Z,96817.78
2023-03-05T01:37:10.060Z,96818.59
2023-03-05T01:39:37.896Z,96814.38
2023-03-05T01:42:06.205Z,96815.28
2023-03-05T01:44:36.189Z,96810.06
2023-03-05T01:47:04.399Z,96806.56
2023-03-05T01:49:35.195Z,96800.50
2023-03-05T01:52:07.582Z,96794.41
2023-03-05T01:54:39.814Z,96802.22
2023-03-05T01:57:11.233Z,96796.13
2023-03-05T01:59:43.017Z,96796.19
2023-03-05T02:02:11.015Z,96785.69
2023-03-05T02:04:44.774Z,96788.16
2023-03-05T02:07:13.692Z,96786.53
2023-03-05T02:09:42.726Z,96777.94
2023-03-05T02:12:12.747Z,96778.78
2023-03-05T02:14:44.035Z,96775.28
2023-03-05T02:17:12.894Z,96774.28
2023-03-05T02:19:52.134Z,96767.59
2023-03-05T02:22:23.835Z,96771.88
2023-03-05T02:24:53.390Z,96763.13
2023-03-05T02:27:27.200Z,96769.06
2023-03-05T02:29:55.580Z,96763.13
2023-03-05T02:32:23.505Z,96764.13
2023-03-05T02:34:51.330Z,96751.72
2023-03-05T02:37:20.929Z,96757.03
2023-03-05T02:39:48.739Z,96760.53
2023-03-05T02:42:16.735Z,96753.56
2023-03-05T02:44:44.692Z,96745.75
2023-03-05T02:47:16.089Z,96748.34
2023-03-05T02:49:44.498Z,96738.91
2023-03-05T02:52:13.415Z,96743.19
2023-03-05T02:54:42.805Z,96734.53
2023-03-05T02:57:10.671Z,96736.22
2023-03-05T02:59:38.562Z,96736.22
2023-03-05T03:02:06.650Z,96727.56
2023-03-05T03:04:34.465Z,96722.34
2023-03-05T03:07:02.382Z,96721.56
2023-03-05T03:09:30.358Z,96722.34
2023-03-05T03:11:59.568Z,96717.13
2023-03-05T03:14:27.515Z,96714.53
2023-03-05T03:16:55.316Z,96716.28
2023-03-05T03:19:23.235Z,96718.94
2023-03-05T03:21:51.173Z,96711.00
2023-03-05T03:24:18.952Z,96711.13
2023-03-05T03:26:46.816Z,96704.09
2023-03-05T03:29:16.042Z,96708.53
2023-03-05T03:31:45.536Z,96704.25
2023-03-05T03:34:15.024Z,96705.09
2023-03-05T03:36:43.024Z,96701.75
2023-03-05T03:39:11.400Z,96705.28
2023-03-05T03:41:42.425Z,96703.56
2023-03-05T03:44:10.725Z,96700.84
2023-03-05T03:46:41.889Z,96694.91
2023-03-05T03:49:09.752Z,96687.03
2023-03-05T03:51:37.639Z,96689.69
2023-03-05T03:54:05.595Z,96680.13
2023-03-05T03:56:33.412Z,96686.19
2023-03-05T03:59:01.278Z,96690.53
2023-03-05T04:01:29.202Z,96685.31
2023-03-05T04:03:58.379Z,96678.44
2023-03-05T04:06:26.500Z,96685.28
2023-03-05T04:08:54.611Z,96687.88
2023-03-05T04:11:22.475Z,96687.81
2023-03-05T04:13:50.413Z,96682.72
2023-03-05T04:16:19.586Z,96677.38
2023-03-05T04:18:47.451Z,96677.59
2023-03-05T04:21:16.679Z,96682.72
2023-03-05T04:23:44.615Z,96668.00
2023-03-05T04:26:12.682Z,96673.94
2023-03-05T04:28:40.478Z,96674.16
2023-03-05T04:31:08.291Z,96664.63
2023-03-05T04:33:36.286Z,96668.84
2023-03-05T04:36:04.822Z,96668.84
2023-03-05T04:38:34.009Z,96671.53
2023-03-05T04:41:01.864Z,96666.25
2023-03-05T04:43:29.642Z,96671.53
2023-03-05T04:45:57.571Z,96659.41
2023-03-05T04:48:25.697Z,96661.13
2023-03-05T04:50:53.485Z,96656.75
2023-03-05T04:53:21.374Z,96652.44
2023-03-05T04:55:55.314Z,96649.13
2023-03-05T04:58:23.687Z,96651.66
2023-03-05T05:00:52.670Z,96656.81
2023-03-05T05:03:20.562Z,96660.34
2023-03-05T05:05:55.431Z,96649.13
2023-03-05T05:08:23.654Z,96650.91
2023-03-05T05:11:01.371Z,96646.59
2023-03-05T05:13:29.244Z,96644.81
2023-03-05T05:15:57.557Z,96636.16
2023-03-05T05:18:25.534Z,96633.63
2023-03-05T05:20:53.443Z,96643.13
2023-03-05T05:23:21.270Z,96644.06
2023-03-05T05:25:57.281Z,96644.13
2023-03-05T05:28:26.607Z,96637.91
2023-03-05T05:30:55.939Z,96645.75
2023-03-05T05:33:24.578Z,96642.34
2023-03-05T05:35:52.505Z,96638.84
2023-03-05T05:38:20.754Z,96644.97
2023-03-05T05:40:48.606Z,96643.28
2023-03-05T05:43:16.573Z,96648.56
2023-03-05T05:45:45.816Z,96647.72
2023-03-05T05:48:13.736Z,96646.66
2023-03-05T05:50:41.575Z,96646.00
2023-03-05T05:53:09.358Z,96645.16
2023-03-05T05:55:37.202Z,96644.31
2023-03-05T05:58:04.988Z,96650.22
2023-03-05T06:00:32.791Z,96651.22
2023-03-05T06:03:02.047Z,96639.75
2023-03-05T06:05:30.047Z,96641.66
2023-03-05T06:07:58.133Z,96640.69
2023-03-05T06:10:26.002Z,96639.94
2023-03-05T06:12:53.788Z,96648.56
2023-03-05T06:15:21.628Z,96640.78
2023-03-05T06:17:49.460Z,96638.06
2023-03-05T06:20:19.887Z,96640.69
2023-03-05T06:22:47.877Z,96642.34
2023-03-05T06:25:15.730Z,96641.50
2023-03-05T06:27:43.799Z,96643.28
2023-03-05T06:30:13.271Z,96642.34
2023-03-05T06:32:41.090Z,96637.97
2023-03-05T06:35:09.868Z,96637.00
2023-03-05T06:37:39.031Z,96631.88
2023-03-05T06:40:08.688Z,96637.91
2023-03-05T06:42:36.584Z,96637.00
2023-03-05T06:45:05.034Z,96635.16
2023-03-05T06:47:32.876Z,96636.88
2023-03-05T06:50:00.696Z,96634.19
2023-03-05T06:52:28.570Z,96635.81
2023-03-05T06:54:57.750Z,96635.81
2023-03-05T06:57:25.557Z,96628.84
2023-03-05T06:59:53.409Z,96627.88
2023-03-05T07:02:21.242Z,96623.50
2023-03-05T07:04:49.205Z,96623.34
2023-03-05T07:07:17.268Z,96629.34
2023-03-05T07:09:46.080Z,96624.06
2023-03-05T07:12:15.538Z,96619.63
2023-03-05T07:14:43.566Z,96623.06
2023-03-05T07:17:11.538Z,96617.03
2023-03-05T07:19:39.782Z,96620.47
2023-03-05T07:22:08.252Z,96624.53
2023-03-05T07:24:36.615Z,96624.47
2023-03-05T07:27:04.911Z,96621.81
2023-03-05T07:29:34.455Z,96619.88
2023-03-05T07:32:02.944Z,96616.28
2023-03-05T07:34:31.224Z,96622.28
2023-03-05T07:36:59.484Z,96615.19
2023-03-05T07:39:27.620Z,96614.19
2023-03-05T07:41:55.641Z,96614.19
2023-03-05T07:44:30.333Z,96609.75
2023-03-05T07:47:00.000Z,96608.75
2023-03-05T07:49:28.321Z,96610.50
2023-03-05T07:51:56.177Z,96605.94
2023-03-05T07:54:24.230Z,96605.94
2023-03-05T07:56:52.451Z,96614.44
2023-03-05T07:59:20.347Z,96611.78
2023-03-05T08:01:48.477Z,96606.63
2023-03-05T08:04:18.064Z,96609.94
2023-03-05T08:06:47.079Z,96607.22
2023-03-05T08:09:15.290Z,96608.09
2023-03-05T08:11:43.614Z,96602.50
2023-03-05T08:14:13.025Z,96605.03
2023-03-05T08:16:42.339Z,96602.72
2023-03-05T08:19:12.254Z,96609.41
2023-03-05T08:21:41.817Z,96605.78
2023-03-05T08:24:12.013Z,96603.06
2023-03-05T08:26:41.491Z,96599.47
2023-03-05T08:29:10.889Z,96605.34
2023-03-05T08:31:40.328Z,96600.00
2023-03-05T08:34:08.763Z,96603.22
2023-03-05T08:36:37.095Z,96588.34
2023-03-05T08:39:08.502Z,96591.69
2023-03-05T08:41:36.710Z,96603.06
2023-03-05T08:44:05.468Z,96595.78
2023-03-05T08:46:33.943Z,96597.41
2023-03-05T08:49:01.949Z,96590.19
2023-03-05T08:51:30.349Z,96583.13
2023-03-05T08:54:00.135Z,96586.50
2023-03-05T08:56:31.662Z,96586.28
2023-03-05T08:58:59.681Z,96585.03
2023-03-05T09:01:28.037Z,96575.19
2023-03-05T09:03:56.541Z,96574.97
2023-03-05T09:06:25.130Z,96573.28
2023-03-05T09:08:53.704Z,96572.94
2023-03-05T09:11:22.409Z,96577.28
2023-03-05T09:13:52.181Z,96574.50
2023-03-05T09:16:21.787Z,96581.91
2023-03-05T09:18:50.016Z,96567.19
2023-03-05T09:21:19.067Z,96572.94
2023-03-05T09:23:48.012Z,96568.97
2023-03-05T09:26:19.254Z,96560.88
2023-03-05T09:28:48.659Z,96570.50
2023-03-05T09:31:18.225Z,96560.13
2023-03-05T09:33:48.286Z,96558.88
2023-03-05T09:36:23.209Z,96565.97
2023-03-05T09:38:51.877Z,96562.06
2023-03-05T09:41:30.302Z,96554.59
2023-03-05T09:44:08.878Z,96554.66
2023-03-05T09:46:50.949Z,96557.97
2023-03-05T09:49:31.809Z,96549.06
2023-03-05T09:52:06.764Z,96548.28
2023-03-05T09:54:39.941Z,96538.50
2023-03-05T09:57:17.525Z,96542.63
2023-03-05T09:59:51.052Z,96542.63
2023-03-05T10:02:26.339Z,96534.88
2023-03-05T10:04:59.812Z,96536.16
2023-03-05T10:07:32.203Z,96531.94
2023-03-05T10:10:02.641Z,96533.59
2023-03-05T10:12:42.603Z,96525.44
2023-03-05T10:15:14.492Z,96535.66
2023-03-05T10:18:13.343Z,96529.59
2023-03-05T10:21:00.321Z,96526.88
2023-03-05T10:23:33.028Z,96533.38
2023-03-05T10:26:08.528Z,96529.59
2023-03-05T10:28:44.367Z,96522.00
2023-03-05T10:31:26.652Z,96527.72
2023-03-05T10:34:12.254Z,96528.56
2023-03-05T10:37:02.451Z,96520.81
2023-03-05T10:40:00.446Z,96513.53
2023-03-05T10:42:40.982Z,96514.72
2023-03-05T10:45:16.680Z,96501.47
2023-03-05T10:47:49.694Z,96510.00
2023-03-05T10:50:21.953Z,96503.25
2023-03-05T10:53:02.069Z,96497.78
2023-03-05T10:55:29.986Z,96500.06
2023-03-05T10:57:57.998Z,96503.50
2023-03-05T11:00:27.754Z,96498.97
2023-03-05T11:03:00.208Z,96484.19
2023-03-05T11:05:42.791Z,96485.13
2023-03-05T11:08:30.144Z,96486.31
2023-03-05T11:11:22.707Z,96484.44
2023-03-05T11:13:57.132Z,96470.72
2023-03-05T11:16:27.510Z,96471.63
2023-03-05T11:19:20.447Z,96478.13
2023-03-05T11:22:07.611Z,96478.31
2023-03-05T11:24:35.461Z,96469.78
2023-03-05T11:27:03.965Z,96473.16
2023-03-05T11:29:33.640Z,96474.59
2023-03-05T11:32:17.452Z,96467.91
2023-03-05T11:34:46.087Z,96462.28
2023-03-05T11:37:24.720Z,96459.75
2023-03-05T11:40:16.653Z,96459.41
2023-03-05T11:42:45.179Z,96456.69
2023-03-05T11:45:18.808Z,96451.22
2023-03-05T11:47:49.838Z,96451.00
2023-03-05T11:50:23.268Z,96449.72
2023-03-05T11:52:54.659Z,96447.94
2023-03-05T11:55:27.937Z,96438.66
2023-03-05T11:58:05.774Z,96438.16
2023-03-05T12:00:37.008Z,96434.38
2023-03-05T12:03:12.219Z,96435.97
2023-03-05T12:05:42.704Z,96421.06
2023-03-05T12:08:16.428Z,96427.63
2023-03-05T12:10:44.420Z,96420.78
2023-03-05T12:13:21.112Z,96422.66
2023-03-05T12:16:01.768Z,96413.91
2023-03-05T12:18:38.408Z,96412.28
2023-03-05T12:21:15.494Z,96406.81
2023-03-05T12:23:50.773Z,96410.00
2023-03-05T12:26:18.996Z,96403.94
2023-03-05T12:29:04.734Z,96400.72
2023-03-05T12:31:38.679Z,96395.16
2023-03-05T12:34:40.497Z,96395.09
2023-03-05T12:37:12.608Z,96391.03
2023-03-05T12:39:58.230Z,96386.38
2023-03-05T12:42:52.554Z,96381.16
2023-03-05T12:45:41.993Z,96377.97
2023-03-05T12:48:45.155Z,96381.91
2023-03-05T12:51:30.709Z,96368.34
2023-03-05T12:53:59.731Z,96368.84
2023-03-05T12:56:34.532Z,96359.34
2023-03-05T12:59:04.641Z,96357.38
2023-03-05T13:01:41.561Z,96355.44
2023-03-05T13:04:17.457Z,96360.88
2023-03-05T13:06:45.279Z,96361.44
2023-03-05T13:09:19.022Z,96353.66
2023-03-05T13:11:51.000Z,96351.75
2023-03-05T13:14:31.137Z,96346.66
2023-03-05T13:16:59.486Z,96340.53
2023-03-05T13:19:27.935Z,96345.75
2023-03-05T13:21:59.805Z,96343.22
2023-03-05T13:24:29.195Z,96340.34
2023-03-05T13:26:58.478Z,96339.16
2023-03-05T13:29:28.362Z,96333.94
2023-03-05T13:31:58.501Z,96336.97
2023-03-05T13:34:40.850Z,96330.19
2023-03-05T13:37:18.758Z,96325.81
2023-03-05T13:39:51.290Z,96327.53
2023-03-05T13:42:24.036Z,96338.34
2023-03-05T13:44:55.928Z,96327.00
2023-03-05T13:47:28.395Z,96325.22
2023-03-05T13:49:59.853Z,96328.38
2023-03-05T13:52:30.855Z,96318.34
2023-03-05T13:54:59.655Z,96319.25
2023-03-05T13:57:40.568Z,96314.13
2023-03-05T14:00:27.471Z,96312.09
2023-03-05T14:02:59.500Z,96307.69
2023-03-05T14:05:28.193Z,96308.97
2023-03-05T14:07:56.720Z,96312.59
2023-03-05T14:10:35.365Z,96305.44
2023-03-05T14:13:07.010Z,96296.59
2023-03-05T14:15:36.545Z,96306.28
2023-03-05T14:18:19.917Z,96295.06
2023-03-05T14:21:03.859Z,96290.03
2023-03-05T14:23:37.623Z,96292.53
2023-03-05T14:26:33.475Z,96297.59
2023-03-05T14:29:05.222Z,96288.25
2023-03-05T14:31:47.049Z,96278.97
2023-03-05T14:34:24.344Z,96279.91
2023-03-05T14:36:54.663Z,96272.72
2023-03-05T14:39:29.581Z,96267.50
2023-03-05T14:42:13.359Z,96271.06
2023-03-05T14:44:43.622Z,96270.56
2023-03-05T14:47:11.419Z,96264.41
2023-03-05T14:49:39.689Z,96266.28
2023-03-05T14:52:07.572Z,96261.38
2023-03-05T14:54:38.581Z,96250.44
2023-03-05T14:57:07.136Z,96250.44
2023-03-05T14:59:34.970Z,96247.06
2023-03-05T15:02:04.227Z,96240.94
2023-03-05T15:04:32.076Z,96241.59
2023-03-05T15:06:59.879Z,96243.63
2023-03-05T15:09:27.828Z,96237.50
2023-03-05T15:11:55.720Z,96234.78
2023-03-05T15:14:23.682Z,96227.94
2023-03-05T15:16:51.612Z,96222.72
2023-03-05T15:19:20.823Z,96231.59
2023-03-05T15:21:48.645Z,96222.72
2023-03-05T15:24:16.485Z,96217.50
2023-03-05T15:26:45.055Z,96222.84
2023-03-05T15:29:12.867Z,96212.47
2023-03-05T15:31:40.825Z,96225.72
2023-03-05T15:34:08.741Z,96209.19
2023-03-05T15:36:37.962Z,96210.88
2023-03-05T15:39:05.836Z,96211.78
2023-03-05T15:41:33.682Z,96208.34
2023-03-05T15:44:01.516Z,96198.00
2023-03-05T15:46:29.350Z,96188.84
2023-03-05T15:48:57.169Z,96198.34
2023-03-05T15:51:25.037Z,96200.19
2023-03-05T15:53:54.512Z,96190.69
2023-03-05T15:56:22.390Z,96189.81
2023-03-05T15:58:50.768Z,96184.59
2023-03-05T16:01:20.770Z,96176.19
2023-03-05T16:03:49.122Z,96180.31
2023-03-05T16:06:22.489Z,96179.19
2023-03-05T16:08:52.377Z,96174.03
2023-03-05T16:11:22.442Z,96170.41
2023-03-05T16:13:51.521Z,96175.63
2023-03-05T16:16:20.303Z,96160.78
2023-03-05T16:18:48.927Z,96155.56
2023-03-05T16:21:16.894Z,96159.31
2023-03-05T16:23:44.978Z,96155.84
2023-03-05T16:26:12.753Z,96162.75
2023-03-05T16:28:42.000Z,96159.31
2023-03-05T16:31:09.824Z,96154.09
2023-03-05T16:33:37.683Z,96163.66
2023-03-05T16:36:24.036Z,96152.38
2023-03-05T16:38:53.451Z,96152.47
2023-03-05T16:41:24.389Z,96152.47
2023-03-05T16:43:56.363Z,96154.63
2023-03-05T16:46:24.655Z,96149.22
2023-03-05T16:48:52.713Z,96147.34
2023-03-05T16:51:21.774Z,96142.13
2023-03-05T16:53:49.623Z,96142.13
2023-03-05T16:56:17.610Z,96132.78
2023-03-05T16:58:45.712Z,96136.22
2023-03-05T17:01:19.083Z,96138.28
2023-03-05T17:03:47.324Z,96133.22
2023-03-05T17:06:17.905Z,96128.84
2023-03-05T17:08:47.600Z,96131.28
2023-03-05T17:11:16.413Z,96130.34
2023-03-05T17:13:45.921Z,96133.81
2023-03-05T17:16:18.466Z,96129.53
2023-03-05T17:18:47.077Z,96130.34
2023-03-05T17:21:15.680Z,96131.38
2023-03-05T17:23:44.009Z,96129.69
2023-03-05T17:26:14.237Z,96126.22
2023-03-05T17:28:42.236Z,96129.78
2023-03-05T17:31:10.353Z,96129.78
2023-03-05T17:33:41.422Z,96131.38
2023-03-05T17:36:14.834Z,96132.41
2023-03-05T17:38:43.052Z,96134.06
2023-03-05T17:41:11.429Z,96132.56
2023-03-05T17:43:39.303Z,96135.16
2023-03-05T17:46:07.888Z,96127.34
2023-03-05T17:48:38.791Z,96131.72
2023-03-05T17:51:08.934Z,96133.50
2023-03-05T17:53:38.914Z,96135.16
2023-03-05T17:56:08.736Z,96137.88
2023-03-05T17:58:36.868Z,96136.09
2023-03-05T18:01:05.508Z,96135.34
2023-03-05T18:03:33.460Z,96122.22
2023-03-05T18:06:01.262Z,96136.09
2023-03-05T18:08:30.518Z,96131.91
2023-03-05T18:10:58.450Z,96127.59
2023-03-05T18:13:26.372Z,96125.84
2023-03-05T18:15:54.279Z,96129.38
2023-03-05T18:18:22.117Z,96127.69
2023-03-05T18:20:50.669Z,96124.16
2023-03-05T18:23:18.605Z,96117.34
2023-03-05T18:25:48.035Z,96124.16
2023-03-05T18:28:16.981Z,96119.94
2023-03-05T18:30:46.332Z,96115.56
2023-03-05T18:33:18.712Z,96110.25
2023-03-05T18:35:46.743Z,96112.03
2023-03-05T18:38:14.675Z,96108.50
2023-03-05T18:40:43.743Z,96113.91
2023-03-05T18:43:12.927Z,96113.91
2023-03-05T18:45:40.840Z,96117.53
2023-03-05T18:48:08.770Z,96114.81
2023-03-05T18:50:36.906Z,96108.00
2023-03-05T18:53:04.742Z,96105.50
2023-03-05T18:55:33.027Z,96107.16
2023-03-05T18:58:00.953Z,96097.56
2023-03-05T19:00:31.848Z,96098.56
2023-03-05T19:03:00.116Z,96097.81
2023-03-05T19:05:28.097Z,96099.41
2023-03-05T19:07:56.645Z,96102.78
2023-03-05T19:10:25.285Z,96095.06
2023-03-05T19:13:05.297Z,96088.97
2023-03-05T19:15:34.790Z,96090.75
2023-03-05T19:18:02.648Z,96083.75
2023-03-05T19:20:30.491Z,96088.06
2023-03-05T19:22:58.307Z,96089.06
2023-03-05T19:25:26.205Z,96083.94
2023-03-05T19:27:54.065Z,96081.41
2023-03-05T19:30:22.173Z,96078.91
2023-03-05T19:32:51.438Z,96082.41
2023-03-05T19:35:19.973Z,96074.69
2023-03-05T19:37:47.875Z,96079.06
2023-03-05T19:40:15.914Z,96077.38
2023-03-05T19:42:43.857Z,96068.91
2023-03-05T19:45:12.290Z,96072.25
2023-03-05T19:47:40.212Z,96063.78
2023-03-05T19:50:10.260Z,96069.81
2023-03-05T19:52:38.067Z,96072.34
2023-03-05T19:55:06.845Z,96055.75
2023-03-05T19:57:34.709Z,96065.34
2023-03-05T20:00:02.575Z,96055.88
2023-03-05T20:02:32.946Z,96053.16
2023-03-05T20:05:00.937Z,96055.75
2023-03-05T20:07:30.224Z,96047.03
2023-03-05T20:09:58.182Z,96049.88
2023-03-05T20:12:26.243Z,96047.16
2023-03-05T20:14:54.114Z,96045.59
2023-03-05T20:17:22.002Z,96045.59
2023-03-05T20:19:49.823Z,96049.97
2023-03-05T20:22:17.710Z,96039.59
2023-03-05T20:24:47.336Z,96043.25
2023-03-05T20:27:15.222Z,96045.97
2023-03-05T20:29:43.035Z,96038.84
2023-03-05T20:32:10.868Z,96033.81
2023-03-05T20:34:38.798Z,96037.19
2023-03-05T20:37:07.542Z,96044.25
2023-03-05T20:39:35.367Z,96040.75
2023-03-05T20:42:04.652Z,96036.34
2023-03-05T20:44:32.476Z,96044.25
2023-03-05T20:47:12.517Z,96030.31
2023-03-05T20:49:40.409Z,96032.16
2023-03-05T20:52:08.237Z,96020.78
2023-03-05T20:54:36.366Z,96026.06
2023-03-05T20:57:05.617Z,96016.66
2023-03-05T20:59:33.471Z,96018.34
2023-03-05T21:02:01.377Z,96017.78
2023-03-05T21:04:29.446Z,96022.06
2023-03-05T21:06:57.508Z,96012.66
2023-03-05T21:09:25.371Z,96011.63
2023-03-05T21:11:53.252Z,96011.63
2023-03-05T21:14:22.506Z,96014.41
2023-03-05T21:16:50.375Z,96007.34
2023-03-05T21:19:18.240Z,96003.81
2023-03-05T21:21:46.226Z,96001.38
2023-03-05T21:24:16.519Z,95996.16
2023-03-05T21:26:44.337Z,95998.91
2023-03-05T21:29:12.225Z,96005.09
2023-03-05T21:31:41.617Z,95994.66
2023-03-05T21:34:09.512Z,95998.91
2023-03-05T21:36:37.395Z,95991.03
2023-03-05T21:39:05.428Z,95989.44
2023-03-05T21:41:33.420Z,95978.16
2023-03-05T21:44:04.034Z,95983.28
2023-03-05T21:46:32.153Z,95979.84
2023-03-05T21:49:01.385Z,95972.75
2023-03-05T21:51:38.723Z,95968.38
2023-03-05T21:54:07.105Z,95966.72
2023-03-05T21:56:35.005Z,95968.56
2023-03-05T21:59:03.112Z,95963.34
2023-03-05T22:01:31.142Z,95959.91
2023-03-05T22:03:59.006Z,95961.69
2023-03-05T22:06:28.408Z,95950.56
2023-03-05T22:08:56.538Z,95940.81
2023-03-05T22:11:24.400Z,95943.59
2023-03-05T22:13:52.350Z,95937.53
2023-03-05T22:16:24.255Z,95937.47
2023-03-05T22:18:53.181Z,95940.22
2023-03-05T22:21:23.671Z,95939.31
2023-03-05T22:23:54.188Z,95936.72
2023-03-05T22:26:22.067Z,95934.28
2023-03-05T22:28:50.403Z,95928.22
2023-03-05T22:31:21.876Z,95927.38
2023-03-05T22:33:50.085Z,95924.75
2023-03-05T22:36:18.390Z,95915.09
2023-03-05T22:38:46.701Z,95919.47
2023-03-05T22:41:19.714Z,95913.31
2023-03-05T22:43:48.306Z,95908.22
2023-03-05T22:46:19.098Z,95903.00
2023-03-05T22:48:47.313Z,95893.28
2023-03-05T22:51:15.891Z,95904.66
2023-03-05T22:53:45.909Z,95900.28
2023-03-05T22:56:17.223Z,95896.91
2023-03-05T22:58:45.371Z,95896.28
2023-03-05T23:01:14.240Z,95898.88
2023-03-05T23:03:42.771Z,95895.31
2023-03-05T23:06:11.530Z,95885.91
2023-03-05T23:08:39.427Z,95883.41
2023-03-05T23:11:11.756Z,95882.66
2023-03-05T23:13:41.660Z,95879.19
2023-03-05T23:16:10.020Z,95873.81
2023-03-05T23:18:38.407Z,95872.31
2023-03-05T23:21:06.662Z,95869.72
2023-03-05T23:23:34.616Z,95871.56
2023-03-05T23:26:02.885Z,95863.56
2023-03-05T23:28:30.746Z,95857.78
2023-03-05T23:31:00.044Z,95856.00
2023-03-05T23:33:28.015Z,95858.72
2023-03-05T23:35:57.866Z,95848.03
2023-03-05T23:38:27.259Z,95850.78
2023-03-05T23:40:58.528Z,95853.41
2023-03-05T23:43:28.322Z,95848.94
2023-03-05T23:45:56.589Z,95846.50
2023-03-05T23:48:27.460Z,95838.78
2023-03-05T23:50:56.188Z,95844.75
2023-03-05T23:53:26.125Z,95835.16
2023-03-05T23:55:55.016Z,95830.94
2023-03-05T23:58:23.276Z,95834.44
